Time;durP1;ratioP1;P1;durP2;ratioP2;P2;SDS_P1;SDS_P2;PMS_P1;PMS_P2;Temp;Humidity;BMP_temperature;BMP_pressure;BME280_temperature;BME280_humidity;BME280_pressure;Samples;Min_cycle;Max_cycle;Signal;HPM_P1;HPM_P2
2021/08/09 00:01:59;;;;;;;2.53;2.33;;;16.60;99.90;;;;;;5070853;28;20987;-51
2021/08/09 00:04:27;;;;;;;2.03;1.93;;;16.40;99.90;;;;;;5071457;28;21101;-52
2021/08/09 00:06:54;;;;;;;2.53;2.33;;;16.40;99.90;;;;;;5071580;28;20512;-54
2021/08/09 00:09:21;;;;;;;2.67;2.00;;;16.40;99.90;;;;;;5083713;28;20477;-53
2021/08/09 00:11:48;;;;;;;2.43;1.77;;;16.40;99.90;;;;;;5071552;28;20451;-53
2021/08/09 00:14:15;;;;;;;2.47;1.90;;;16.50;99.90;;;;;;5073633;28;20935;-53
2021/08/09 00:16:42;;;;;;;1.97;1.50;;;16.50;99.90;;;;;;5075010;28;20936;-53
2021/08/09 00:19:09;;;;;;;1.70;1.60;;;16.60;99.90;;;;;;5087872;28;20450;-53
2021/08/09 00:21:39;;;;;;;2.07;1.90;;;16.60;99.90;;;;;;5075215;28;20478;-53
2021/08/09 00:24:06;;;;;;;3.67;2.10;;;16.60;99.90;;;;;;5075008;28;20446;-53
2021/08/09 00:26:34;;;;;;;2.70;2.03;;;16.50;99.90;;;;;;5090219;28;20863;-52
2021/08/09 00:29:01;;;;;;;2.80;2.03;;;16.50;99.90;;;;;;5095190;28;20533;-52
2021/08/09 00:31:28;;;;;;;2.30;2.10;;;16.50;99.90;;;;;;5075679;28;20500;-52
2021/08/09 00:33:55;;;;;;;3.13;1.90;;;16.50;99.90;;;;;;5074876;28;20450;-54
2021/08/09 00:36:22;;;;;;;2.20;1.77;;;16.50;99.90;;;;;;5088592;28;20450;-53
2021/08/09 00:38:51;;;;;;;2.00;1.90;;;16.50;99.90;;;;;;5095313;28;20502;-55
2021/08/09 00:41:18;;;;;;;2.47;2.27;;;16.50;99.90;;;;;;5077305;28;20447;-53
2021/08/09 00:43:45;;;;;;;2.80;1.97;;;16.50;99.90;;;;;;5074340;28;20507;-53
2021/08/09 00:46:12;;;;;;;2.47;2.30;;;16.50;99.90;;;;;;5086284;28;21020;-53
2021/08/09 00:48:39;;;;;;;2.30;2.10;;;16.50;99.90;;;;;;5094924;28;20542;-53
2021/08/09 00:51:08;;;;;;;2.70;2.10;;;16.50;99.90;;;;;;5079025;28;20450;-54
2021/08/09 00:53:35;;;;;;;4.73;2.20;;;16.50;99.90;;;;;;5074295;28;20932;-52
2021/08/09 00:56:04;;;;;;;2.50;2.30;;;16.50;99.90;;;;;;5084041;28;20450;-53
2021/08/09 00:58:32;;;;;;;3.10;2.40;;;16.40;99.90;;;;;;5094836;28;20481;-51
2021/08/09 01:00:59;;;;;;;4.27;2.10;;;16.40;99.90;;;;;;5079691;28;20454;-53
2021/08/09 01:03:26;;;;;;;3.97;2.87;;;16.40;99.90;;;;;;5074138;28;20486;-53
2021/08/09 01:05:53;;;;;;;3.20;2.90;;;16.40;99.90;;;;;;5082237;28;20503;-52
2021/08/09 01:08:28;;;;;;;2.77;2.53;;;16.30;99.90;;;;;;5094216;28;20470;-52
2021/08/09 01:11:07;;;;;;;3.20;2.13;;;16.40;99.90;;;;;;5080642;28;20451;-53
2021/08/09 01:13:44;;;;;;;2.50;2.30;;;16.40;99.90;;;;;;5074059;28;20504;-52
2021/08/09 01:16:13;;;;;;;3.10;2.60;;;16.40;99.90;;;;;;5084043;28;20962;-53
2021/08/09 01:18:42;;;;;;;5.03;2.27;;;16.40;99.90;;;;;;5094296;28;20523;-54
2021/08/09 01:21:11;;;;;;;2.83;2.30;;;16.40;99.90;;;;;;5080686;28;20451;-54
2021/08/09 01:24:07;;;;;;;2.70;2.37;;;16.40;99.90;;;;;;5072770;28;20544;-52
2021/08/09 01:26:41;;;;;;;2.83;2.37;;;16.40;99.90;;;;;;5071878;28;20515;-55
2021/08/09 01:29:13;;;;;;;4.90;2.80;;;16.40;99.90;;;;;;5074006;28;20450;-52
2021/08/09 01:31:43;;;;;;;5.37;2.53;;;16.30;99.90;;;;;;5090635;28;20491;-53
2021/08/09 01:34:12;;;;;;;2.57;2.37;;;16.30;99.90;;;;;;5092259;28;20450;-52
2021/08/09 01:36:42;;;;;;;4.80;2.80;;;16.30;99.90;;;;;;5093955;28;20454;-52
2021/08/09 01:39:11;;;;;;;2.77;2.57;;;16.20;99.90;;;;;;5093921;28;20446;-53
2021/08/09 01:41:39;;;;;;;3.47;2.30;;;16.10;99.90;;;;;;5077293;28;20496;-53
2021/08/09 01:44:09;;;;;;;3.07;2.47;;;16.20;99.90;;;;;;5088068;28;20450;-53
2021/08/09 01:46:37;;;;;;;3.37;1.90;;;16.10;99.90;;;;;;5093680;28;20934;-53
2021/08/09 01:49:06;;;;;;;3.47;2.27;;;16.10;99.90;;;;;;5093804;28;20442;-52
2021/08/09 01:51:34;;;;;;;2.33;2.20;;;16.10;99.90;;;;;;5074949;28;20571;-53
2021/08/09 01:54:02;;;;;;;4.60;2.47;;;16.10;99.90;;;;;;5072753;28;20520;-54
2021/08/09 01:56:29;;;;;;;4.13;1.93;;;16.10;99.90;;;;;;5073096;28;20500;-55
2021/08/09 01:58:57;;;;;;;3.40;2.60;;;16.10;99.90;;;;;;5073491;28;20447;-52
2021/08/09 02:01:26;;;;;;;4.57;2.50;;;16.10;99.90;;;;;;5072783;28;20960;-54
2021/08/09 02:03:53;;;;;;;1.90;1.80;;;16.00;99.90;;;;;;5072913;28;20560;-53
2021/08/09 02:06:20;;;;;;;2.90;2.37;;;16.10;99.90;;;;;;5072990;28;20454;-53
2021/08/09 02:08:48;;;;;;;3.70;2.43;;;16.00;99.90;;;;;;5072949;28;20551;-55
2021/08/09 02:11:18;;;;;;;3.00;2.80;;;16.00;99.90;;;;;;5072855;28;20455;-53
2021/08/09 02:13:50;;;;;;;4.10;2.40;;;16.00;99.90;;;;;;5073203;28;20443;-52
2021/08/09 02:16:21;;;;;;;2.67;2.47;;;16.00;99.90;;;;;;5072984;28;20501;-52
2021/08/09 02:18:55;;;;;;;3.97;2.80;;;16.00;99.90;;;;;;5072992;28;20489;-54
2021/08/09 02:21:28;;;;;;;3.20;2.53;;;16.00;99.90;;;;;;5072517;28;20457;-55
2021/08/09 02:24:00;;;;;;;4.87;2.00;;;16.00;99.90;;;;;;5072199;28;20596;-53
2021/08/09 02:26:29;;;;;;;2.27;2.07;;;16.00;99.90;;;;;;5072714;28;20447;-53
2021/08/09 02:29:03;;;;;;;2.87;2.20;;;16.00;99.90;;;;;;5072513;28;20941;-54
2021/08/09 02:31:30;;;;;;;2.60;2.40;;;16.00;99.90;;;;;;5072316;28;20455;-53
2021/08/09 02:34:02;;;;;;;2.90;2.40;;;15.90;99.90;;;;;;5072335;28;20530;-52
2021/08/09 02:36:29;;;;;;;2.67;2.20;;;15.90;99.90;;;;;;5072568;28;20450;-53
2021/08/09 02:38:57;;;;;;;3.60;2.43;;;15.80;99.90;;;;;;5072500;28;20941;-54
2021/08/09 02:41:25;;;;;;;2.60;2.40;;;15.80;99.90;;;;;;5069208;28;21022;-54
2021/08/09 02:43:52;;;;;;;2.70;2.50;;;15.70;99.90;;;;;;5071647;28;20532;-53
2021/08/09 02:46:20;;;;;;;6.00;2.70;;;15.70;99.90;;;;;;5072226;28;20944;-54
2021/08/09 02:48:48;;;;;;;2.60;2.20;;;15.70;99.90;;;;;;5072012;28;20515;-53
2021/08/09 02:51:19;;;;;;;3.00;2.73;;;15.60;99.90;;;;;;5073149;28;20459;-52
2021/08/09 02:53:48;;;;;;;3.60;2.43;;;15.60;99.90;;;;;;5071920;28;20813;-53
2021/08/09 02:56:17;;;;;;;2.30;2.10;;;15.60;99.90;;;;;;5073000;28;20446;-53
2021/08/09 02:58:45;;;;;;;3.53;2.43;;;15.50;99.90;;;;;;5071953;28;20524;-53
2021/08/09 03:01:15;;;;;;;3.80;2.70;;;15.50;99.90;;;;;;5068909;28;21006;-53
2021/08/09 03:03:46;;;;;;;5.77;2.17;;;15.50;99.90;;;;;;5069967;28;20478;-53
2021/08/09 03:06:13;;;;;;;2.90;2.70;;;15.50;99.90;;;;;;5071957;28;20446;-52
2021/08/09 03:08:42;;;;;;;7.60;2.50;;;15.60;99.90;;;;;;5071832;28;20984;-53
2021/08/09 03:11:09;;;;;;;3.70;2.60;;;15.60;99.90;;;;;;5071747;28;20823;-54
2021/08/09 03:13:36;;;;;;;2.60;2.40;;;15.60;99.90;;;;;;5071560;28;20443;-53
2021/08/09 03:16:06;;;;;;;4.07;2.30;;;15.60;99.90;;;;;;5071783;28;20537;-54
2021/08/09 03:18:34;;;;;;;2.47;2.27;;;15.70;99.90;;;;;;5071880;28;20507;-53
2021/08/09 03:21:01;;;;;;;3.70;2.93;;;15.60;99.90;;;;;;5071402;28;20893;-53
2021/08/09 03:23:28;;;;;;;3.77;2.30;;;15.60;99.90;;;;;;5071579;28;20483;-54
2021/08/09 03:25:57;;;;;;;3.60;2.47;;;15.70;99.90;;;;;;5071821;28;20461;-52
2021/08/09 03:28:24;;;;;;;3.00;2.70;;;15.60;99.90;;;;;;5071483;28;20471;-55
2021/08/09 03:30:51;;;;;;;2.70;2.50;;;15.60;99.90;;;;;;5071633;28;20447;-53
2021/08/09 03:33:18;;;;;;;2.63;2.43;;;15.60;99.90;;;;;;5075321;28;20446;-53
2021/08/09 03:35:46;;;;;;;3.43;2.20;;;15.60;99.90;;;;;;5071537;28;20450;-53
2021/08/09 03:38:13;;;;;;;3.17;2.87;;;15.70;99.90;;;;;;5071561;28;20471;-52
2021/08/09 03:40:40;;;;;;;4.50;2.50;;;15.70;99.90;;;;;;5071434;28;20446;-52
2021/08/09 03:43:09;;;;;;;3.07;2.67;;;15.70;99.90;;;;;;5071191;28;20568;-53
2021/08/09 03:45:36;;;;;;;2.60;2.40;;;15.70;99.90;;;;;;5071821;28;20801;-55
2021/08/09 03:48:06;;;;;;;4.90;2.80;;;15.70;99.90;;;;;;5105126;22;20991;-59
2021/08/09 03:50:33;;;;;;;3.87;2.43;;;15.60;99.90;;;;;;5096117;28;20441;-59
2021/08/09 03:53:00;;;;;;;2.60;2.43;;;15.60;99.90;;;;;;5095466;28;21000;-59
2021/08/09 03:55:27;;;;;;;4.73;3.10;;;15.60;99.90;;;;;;5095858;28;21016;-58
2021/08/09 03:57:54;;;;;;;11.23;2.63;;;15.60;99.90;;;;;;5096061;28;20470;-59
2021/08/09 04:00:23;;;;;;;4.10;2.43;;;15.60;99.90;;;;;;5096176;28;20446;-58
2021/08/09 04:02:50;;;;;;;4.50;3.03;;;15.50;99.90;;;;;;5097346;28;20473;-59
2021/08/09 04:05:17;;;;;;;2.70;2.50;;;15.50;99.90;;;;;;5095890;28;20507;-59
2021/08/09 04:07:44;;;;;;;5.10;2.90;;;15.50;99.90;;;;;;5095522;28;20465;-59
2021/08/09 04:10:11;;;;;;;3.23;2.93;;;15.50;99.90;;;;;;5096003;28;20442;-59
2021/08/09 04:12:38;;;;;;;3.40;2.50;;;15.50;99.90;;;;;;5095048;28;20802;-59
2021/08/09 04:15:07;;;;;;;2.90;2.50;;;15.50;99.90;;;;;;5095577;28;20445;-58
2021/08/09 04:17:36;;;;;;;4.40;2.80;;;15.50;99.90;;;;;;5095336;28;20492;-59
2021/08/09 04:20:04;;;;;;;4.77;3.17;;;15.50;99.90;;;;;;5095397;28;20446;-58
2021/08/09 04:22:30;;;;;;;3.83;3.00;;;15.50;99.90;;;;;;5094617;28;20492;-59
2021/08/09 04:24:58;;;;;;;4.13;3.27;;;15.50;99.90;;;;;;5095527;28;20446;-59
2021/08/09 04:27:25;;;;;;;6.23;2.80;;;15.50;99.90;;;;;;5095287;28;20469;-59
2021/08/09 04:29:52;;;;;;;3.30;2.80;;;15.50;99.90;;;;;;5095231;28;20507;-58
2021/08/09 04:32:19;;;;;;;3.33;2.67;;;15.40;99.90;;;;;;5095468;28;20453;-59
2021/08/09 04:34:48;;;;;;;4.10;3.30;;;15.50;99.90;;;;;;5094865;28;20834;-59
2021/08/09 04:37:16;;;;;;;3.27;3.00;;;15.40;99.90;;;;;;5095249;28;20470;-58
2021/08/09 04:39:43;;;;;;;3.30;2.70;;;15.40;99.90;;;;;;5095351;28;20449;-59
2021/08/09 04:42:12;;;;;;;4.73;3.20;;;15.40;99.90;;;;;;5094720;28;20450;-59
2021/08/09 04:44:39;;;;;;;2.93;2.70;;;15.40;99.90;;;;;;5094508;28;20534;-59
2021/08/09 04:47:06;;;;;;;2.87;2.67;;;15.50;99.90;;;;;;5094857;28;20981;-59
2021/08/09 04:49:33;;;;;;;2.77;2.57;;;15.60;99.90;;;;;;5094829;28;20450;-59
2021/08/09 04:52:02;;;;;;;4.00;3.00;;;15.70;99.90;;;;;;5094800;28;20502;-58
2021/08/09 04:54:29;;;;;;;3.30;3.00;;;15.70;99.90;;;;;;5094698;28;20446;-59
2021/08/09 04:56:56;;;;;;;4.47;3.17;;;15.70;99.90;;;;;;5094566;28;20491;-59
2021/08/09 04:59:23;;;;;;;3.50;3.10;;;15.70;99.90;;;;;;5094634;28;20445;-59
2021/08/09 05:01:50;;;;;;;4.20;3.30;;;15.80;99.90;;;;;;5094418;28;20450;-59
2021/08/09 05:04:16;;;;;;;5.43;3.13;;;15.80;99.90;;;;;;5094254;28;20484;-59
2021/08/09 05:06:44;;;;;;;3.30;3.00;;;15.80;99.90;;;;;;5093987;28;20458;-58
2021/08/09 05:09:12;;;;;;;3.90;3.00;;;15.90;99.90;;;;;;5094273;28;20462;-59
2021/08/09 05:11:39;;;;;;;3.50;2.80;;;16.10;99.90;;;;;;5094575;28;20450;-58
2021/08/09 05:14:06;;;;;;;5.17;3.00;;;16.40;99.90;;;;;;5094167;28;20492;-59
2021/08/09 05:16:35;;;;;;;3.23;2.93;;;16.90;99.90;;;;;;5093849;28;20507;-59
2021/08/09 05:19:03;;;;;;;6.23;3.00;;;17.10;99.90;;;;;;5089549;28;20481;-59
2021/08/09 05:21:30;;;;;;;5.83;2.40;;;17.20;99.90;;;;;;5094167;28;20454;-59
2021/08/09 05:23:58;;;;;;;6.23;4.00;;;17.20;99.90;;;;;;5094348;28;20508;-59
2021/08/09 05:26:26;;;;;;;3.93;2.40;;;17.30;99.90;;;;;;5094061;28;20454;-59
2021/08/09 05:28:53;;;;;;;2.57;2.37;;;17.30;99.90;;;;;;5093876;28;20477;-59
2021/08/09 05:31:21;;;;;;;2.60;2.40;;;17.30;99.90;;;;;;5094231;28;20449;-59
2021/08/09 05:33:48;;;;;;;3.37;2.50;;;17.10;99.90;;;;;;5093077;28;20522;-59
2021/08/09 05:36:15;;;;;;;2.70;2.50;;;16.90;99.90;;;;;;5093534;28;20533;-59
2021/08/09 05:38:42;;;;;;;2.80;2.33;;;16.80;99.90;;;;;;5093394;28;20528;-59
2021/08/09 05:41:09;;;;;;;9.50;2.67;;;16.70;99.90;;;;;;5093202;28;20450;-59
2021/08/09 05:43:37;;;;;;;3.17;2.07;;;16.60;99.90;;;;;;5093358;28;20528;-59
2021/08/09 05:46:04;;;;;;;4.23;2.57;;;16.50;99.90;;;;;;5093705;28;21008;-59
2021/08/09 05:48:31;;;;;;;3.87;2.50;;;16.50;99.90;;;;;;5093155;28;20531;-59
2021/08/09 05:50:58;;;;;;;5.00;2.40;;;16.50;99.90;;;;;;5093676;28;20503;-59
2021/08/09 05:53:27;;;;;;;2.10;2.00;;;16.50;99.90;;;;;;5094846;28;20446;-59
2021/08/09 05:55:54;;;;;;;2.63;2.37;;;16.60;99.90;;;;;;5093462;28;20469;-59
2021/08/09 05:58:21;;;;;;;8.10;2.30;;;16.90;99.90;;;;;;5093280;28;20470;-59
2021/08/09 06:00:50;;;;;;;3.77;1.80;;;17.70;99.90;;;;;;5093379;28;20506;-59
2021/08/09 06:03:18;;;;;;;2.60;1.87;;;18.60;99.90;;;;;;5092030;28;22370;-59
2021/08/09 06:05:46;;;;;;;2.70;2.03;;;19.70;99.90;;;;;;5092979;28;20446;-59
2021/08/09 06:08:13;;;;;;;4.50;1.63;;;20.40;99.90;;;;;;5092951;28;20486;-59
2021/08/09 06:10:40;;;;;;;1.97;1.70;;;20.60;99.90;;;;;;5092677;28;21005;-59
2021/08/09 06:13:07;;;;;;;1.70;1.60;;;20.40;99.90;;;;;;5092863;28;20996;-58
2021/08/09 06:15:33;;;;;;;2.03;1.93;;;20.20;99.90;;;;;;5092369;28;21080;-58
2021/08/09 06:18:02;;;;;;;5.20;1.80;;;19.80;99.90;;;;;;5092873;28;20515;-59
2021/08/09 06:20:30;;;;;;;3.10;1.93;;;19.40;99.90;;;;;;5089323;28;20461;-59
2021/08/09 06:22:58;;;;;;;2.33;2.00;;;19.80;99.90;;;;;;5086624;28;20808;-59
2021/08/09 06:25:26;;;;;;;2.50;2.13;;;20.30;99.90;;;;;;5103266;28;21021;-59
2021/08/09 06:27:53;;;;;;;2.97;2.60;;;20.90;99.90;;;;;;5102473;28;20465;-60
2021/08/09 06:30:20;;;;;;;2.10;2.00;;;21.40;99.90;;;;;;5092740;28;20801;-59
2021/08/09 06:32:47;;;;;;;4.20;2.07;;;21.50;99.90;;;;;;5091512;28;20450;-58
2021/08/09 06:35:16;;;;;;;2.33;1.80;;;21.60;99.90;;;;;;5092812;28;20487;-60
2021/08/09 06:37:43;;;;;;;3.27;2.27;;;21.40;99.90;;;;;;5092571;28;20526;-60
2021/08/09 06:40:11;;;;;;;2.43;2.23;;;21.60;99.90;;;;;;5072306;28;20447;-60
2021/08/09 06:42:38;;;;;;;2.53;1.80;;;22.20;99.90;;;;;;5091782;28;20454;-60
2021/08/09 06:45:06;;;;;;;3.63;2.10;;;22.70;99.90;;;;;;5092473;28;20482;-60
2021/08/09 06:47:33;;;;;;;2.00;1.80;;;23.40;99.90;;;;;;5092225;28;21192;-60
2021/08/09 06:50:00;;;;;;;2.43;2.00;;;23.70;99.90;;;;;;5091231;28;20503;-60
2021/08/09 06:52:28;;;;;;;6.80;1.97;;;24.30;99.90;;;;;;5091889;28;20450;-61
2021/08/09 06:54:58;;;;;;;3.73;1.80;;;24.40;99.90;;;;;;5092274;28;20875;-59
2021/08/09 06:57:25;;;;;;;1.97;1.47;;;24.40;99.90;;;;;;5091641;28;20500;-60
2021/08/09 06:59:52;;;;;;;1.90;1.80;;;24.60;99.90;;;;;;5091783;28;20511;-60
2021/08/09 07:02:19;;;;;;;3.40;2.20;;;24.70;99.90;;;;;;5091523;28;20450;-60
2021/08/09 07:04:47;;;;;;;2.10;1.73;;;25.30;99.90;;;;;;5090942;28;20527;-59
2021/08/09 07:07:17;;;;;;;4.30;1.70;;;25.60;99.90;;;;;;5082096;28;20479;-60
2021/08/09 07:09:45;;;;;;;2.50;2.30;;;25.80;99.90;;;;;;5089377;28;20526;-60
2021/08/09 07:12:16;;;;;;;2.37;1.50;;;25.90;99.90;;;;;;5090643;28;20947;-60
2021/08/09 07:14:43;;;;;;;3.43;1.40;;;26.10;99.90;;;;;;5092088;28;20824;-60
2021/08/09 07:17:10;;;;;;;1.70;1.60;;;26.40;99.90;;;;;;5077294;28;20524;-61
2021/08/09 07:19:39;;;;;;;1.70;1.50;;;26.30;99.90;;;;;;5078165;28;20454;-61
2021/08/09 07:22:07;;;;;;;2.57;1.70;;;26.30;99.90;;;;;;5077644;28;20454;-61
2021/08/09 07:24:35;;;;;;;5.63;1.70;;;26.20;99.90;;;;;;5087152;28;20539;-60
2021/08/09 07:27:04;;;;;;;2.20;2.00;;;26.00;99.90;;;;;;5086332;28;20462;-59
2021/08/09 07:29:32;;;;;;;2.17;1.80;;;25.60;99.90;;;;;;5078937;28;20941;-59
2021/08/09 07:31:59;;;;;;;1.90;1.80;;;25.10;99.90;;;;;;5075433;28;20500;-59
2021/08/09 07:34:27;;;;;;;2.50;1.60;;;24.90;99.90;;;;;;5091949;28;20446;-59
2021/08/09 07:36:54;;;;;;;4.20;1.73;;;24.70;99.90;;;;;;5091383;28;20450;-60
2021/08/09 07:39:21;;;;;;;4.43;2.00;;;24.00;99.90;;;;;;5091831;28;20507;-60
2021/08/09 07:41:50;;;;;;;1.80;1.70;;;23.90;99.90;;;;;;5092206;28;20454;-59
2021/08/09 07:44:20;;;;;;;3.30;1.80;;;23.60;99.90;;;;;;5087689;28;20902;-59
2021/08/09 07:46:47;;;;;;;3.10;1.70;;;23.40;99.90;;;;;;5082258;28;20444;-59
2021/08/09 07:49:15;;;;;;;1.80;1.70;;;23.30;99.90;;;;;;5090125;28;20583;-59
2021/08/09 07:51:45;;;;;;;3.10;2.10;;;23.20;99.90;;;;;;5091406;28;20446;-59
2021/08/09 07:54:12;;;;;;;2.20;2.00;;;23.10;99.90;;;;;;5073831;28;20887;-59
2021/08/09 07:56:40;;;;;;;2.23;1.60;;;22.20;99.90;;;;;;5071384;28;20948;-60
2021/08/09 07:59:07;;;;;;;4.50;1.83;;;22.00;99.90;;;;;;5071099;28;20520;-59
2021/08/09 08:01:35;;;;;;;3.40;1.90;;;22.10;99.90;;;;;;5071261;28;20508;-59
2021/08/09 08:04:03;;;;;;;3.43;1.90;;;22.20;99.90;;;;;;5070776;28;20475;-60
2021/08/09 08:06:30;;;;;;;5.37;1.70;;;22.40;99.90;;;;;;5071445;28;20451;-60
2021/08/09 08:08:57;;;;;;;11.00;2.80;;;22.80;99.90;;;;;;5070903;28;20988;-60
2021/08/09 08:11:24;;;;;;;3.10;1.80;;;23.00;99.90;;;;;;5071058;28;20458;-59
2021/08/09 08:13:51;;;;;;;1.60;1.50;;;23.00;99.90;;;;;;5070783;28;20453;-59
2021/08/09 08:16:18;;;;;;;1.60;1.50;;;23.20;99.90;;;;;;5083441;28;20449;-60
2021/08/09 08:18:47;;;;;;;2.63;1.70;;;23.30;99.90;;;;;;5087219;28;20525;-60
2021/08/09 08:21:14;;;;;;;2.67;1.63;;;23.20;99.90;;;;;;5070885;28;20543;-60
2021/08/09 08:23:40;;;;;;;4.30;2.33;;;23.30;99.90;;;;;;5070644;28;20607;-60
2021/08/09 08:26:07;;;;;;;2.47;1.87;;;23.70;99.90;;;;;;5071240;28;20876;-60
2021/08/09 08:28:36;;;;;;;1.80;1.60;;;23.90;99.90;;;;;;5071009;28;20466;-60
2021/08/09 08:31:03;;;;;;;1.60;1.47;;;23.90;99.90;;;;;;5071031;28;20505;-60
2021/08/09 08:33:30;;;;;;;3.27;1.87;;;23.60;99.90;;;;;;5075662;28;20536;-60
2021/08/09 08:36:00;;;;;;;2.97;2.67;;;23.50;99.90;;;;;;5092061;28;20495;-60
2021/08/09 08:38:27;;;;;;;2.13;1.80;;;23.60;99.90;;;;;;5090866;28;20465;-60
2021/08/09 08:40:55;;;;;;;3.07;1.90;;;24.30;99.90;;;;;;5086712;28;20450;-60
2021/08/09 08:43:23;;;;;;;1.73;1.63;;;25.30;99.90;;;;;;5084733;28;20495;-60
2021/08/09 08:45:56;;;;;;;4.00;1.87;;;26.20;99.90;;;;;;5093933;28;20481;-60
2021/08/09 08:48:24;;;;;;;3.00;1.83;;;26.40;99.90;;;;;;5094693;28;20473;-60
2021/08/09 08:50:51;;;;;;;2.23;1.70;;;27.00;99.90;;;;;;5094984;28;20458;-60
2021/08/09 08:53:20;;;;;;;2.60;1.60;;;27.20;99.90;;;;;;5094630;28;20450;-61
2021/08/09 08:55:47;;;;;;;3.60;1.90;;;27.00;99.90;;;;;;5077740;28;20516;-60
2021/08/09 08:58:14;;;;;;;2.47;1.80;;;27.80;99.90;;;;;;5074548;28;20466;-60
2021/08/09 09:00:42;;;;;;;2.63;1.70;;;28.50;99.90;;;;;;5074257;28;20595;-60
2021/08/09 09:03:17;;;;;;;4.43;1.53;;;27.50;99.90;;;;;;5088124;28;20446;-60
2021/08/09 09:05:57;;;;;;;3.50;1.70;;;26.80;99.90;;;;;;5078447;28;20628;-60
2021/08/09 09:08:38;;;;;;;2.27;1.90;;;27.20;99.90;;;;;;5081488;28;20519;-60
2021/08/09 09:11:06;;;;;;;1.63;1.53;;;27.50;99.90;;;;;;5094633;28;20453;-60
2021/08/09 09:13:33;;;;;;;2.83;1.63;;;27.60;99.90;;;;;;5093254;28;20450;-61
2021/08/09 09:16:03;;;;;;;1.83;1.50;;;27.90;99.90;;;;;;5092627;28;20441;-60
2021/08/09 09:18:48;;;;;;;1.70;1.60;;;28.30;99.90;;;;;;5092975;28;20477;-61
2021/08/09 09:21:26;;;;;;;1.73;1.63;;;28.60;99.90;;;;;;5093911;28;20445;-60
2021/08/09 09:23:57;;;;;;;2.23;1.60;;;28.50;99.90;;;;;;5093889;28;21064;-60
2021/08/09 09:26:26;;;;;;;2.37;1.80;;;28.40;99.90;;;;;;5074069;28;20490;-60
2021/08/09 09:28:54;;;;;;;1.87;1.73;;;28.20;99.90;;;;;;5084277;28;20474;-60
2021/08/09 09:31:28;;;;;;;1.90;1.73;;;27.80;99.90;;;;;;5093948;28;20503;-60
2021/08/09 09:33:55;;;;;;;4.00;1.93;;;27.30;99.90;;;;;;5093350;28;20951;-60
2021/08/09 09:36:22;;;;;;;1.87;1.33;;;27.00;99.90;;;;;;5093501;28;20453;-60
2021/08/09 09:38:51;;;;;;;1.33;1.17;;;27.20;99.90;;;;;;5093526;28;20914;-60
2021/08/09 09:41:21;;;;;;;2.40;1.47;;;27.20;99.90;;;;;;5092924;28;20458;-60
2021/08/09 09:43:48;;;;;;;1.47;1.37;;;27.40;99.90;;;;;;5089666;28;20970;-60
2021/08/09 09:46:23;;;;;;;4.67;1.63;;;28.00;99.90;;;;;;5092477;28;20906;-60
2021/08/09 09:48:55;;;;;;;1.70;1.50;;;28.50;99.90;;;;;;5116461;22;20485;-55
2021/08/09 09:51:22;;;;;;;2.90;1.30;;;28.50;99.90;;;;;;5093123;28;20442;-55
2021/08/09 09:53:51;;;;;;;3.83;1.20;;;28.40;99.90;;;;;;5093145;28;20446;-55
2021/08/09 09:56:18;;;;;;;4.47;1.80;;;28.10;99.90;;;;;;5093513;28;20507;-55
2021/08/09 09:58:47;;;;;;;1.10;1.00;;;28.10;99.90;;;;;;5092904;28;20897;-55
2021/08/09 10:01:14;;;;;;;1.30;1.20;;;28.40;99.90;;;;;;5093713;28;20797;-55
2021/08/09 10:03:42;;;;;;;2.30;1.43;;;28.60;99.90;;;;;;5093213;28;20943;-55
2021/08/09 10:06:11;;;;;;;1.40;1.30;;;28.30;99.90;;;;;;5092521;28;20484;-52
2021/08/09 10:08:43;;;;;;;11.43;2.30;;;27.00;99.90;;;;;;5092666;28;20473;-52
2021/08/09 10:11:11;;;;;;;4.40;1.50;;;27.10;99.90;;;;;;5093214;28;20496;-52
2021/08/09 10:13:39;;;;;;;1.40;1.30;;;26.00;99.90;;;;;;5093042;28;20450;-52
2021/08/09 10:16:11;;;;;;;1.73;1.30;;;26.30;99.90;;;;;;5092516;28;20514;-52
2021/08/09 10:18:41;;;;;;;1.50;1.40;;;26.90;99.90;;;;;;5092960;28;20540;-52
2021/08/09 10:21:08;;;;;;;1.57;1.20;;;27.20;99.90;;;;;;5092527;28;20450;-52
2021/08/09 10:23:41;;;;;;;2.27;1.53;;;27.60;99.90;;;;;;5093109;28;20442;-52
2021/08/09 10:26:10;;;;;;;1.47;1.20;;;28.40;99.90;;;;;;5091942;28;20481;-53
2021/08/09 10:29:04;;;;;;;1.77;1.50;;;28.40;99.90;;;;;;5086592;28;20497;-52
2021/08/09 10:31:35;;;;;;;2.20;1.33;;;27.20;99.90;;;;;;5072190;28;20963;-52
2021/08/09 10:34:04;;;;;;;2.97;1.50;;;26.20;99.90;;;;;;5072644;28;20435;-52
2021/08/09 10:37:04;;;;;;;1.50;1.30;;;26.30;99.90;;;;;;5072938;28;20503;-52
2021/08/09 10:39:53;;;;;;;1.93;1.50;;;26.50;99.90;;;;;;5077236;28;20495;-52
2021/08/09 10:42:32;;;;;;;3.13;1.40;;;27.40;99.90;;;;;;5092718;28;20430;-52
2021/08/09 10:44:59;;;;;;;3.80;1.70;;;27.90;99.90;;;;;;5091386;28;21067;-51
2021/08/09 10:47:53;;;;;;;1.93;1.40;;;26.10;99.90;;;;;;5079727;28;20826;-52
2021/08/09 10:50:47;;;;;;;2.40;1.60;;;25.40;99.90;;;;;;5092592;28;20499;-52
2021/08/09 10:53:43;;;;;;;2.30;1.47;;;25.60;99.90;;;;;;5090331;28;20516;-52
2021/08/09 10:56:28;;;;;;;2.23;1.70;;;26.10;99.90;;;;;;5085142;28;20511;-52
2021/08/09 10:58:57;;;;;;;2.33;1.77;;;26.70;99.90;;;;;;5083657;28;20470;-53
2021/08/09 11:01:25;;;;;;;3.50;2.15;;;27.00;99.90;;;;;;5079878;28;20442;-51
2021/08/09 11:04:16;;;;;;;2.73;1.77;;;26.30;99.90;;;;;;5091971;28;20207;-52
2021/08/09 11:06:52;;;;;;;3.30;1.67;;;25.60;99.90;;;;;;5091900;28;20565;-51
2021/08/09 11:09:42;;;;;;;1.83;1.70;;;25.60;99.90;;;;;;5091579;28;20469;-52
2021/08/09 11:12:18;;;;;;;2.80;1.93;;;25.10;99.90;;;;;;5081858;28;20602;-51
2021/08/09 11:15:07;;;;;;;3.97;1.70;;;24.70;99.90;;;;;;5077216;28;20449;-52
2021/08/09 11:18:02;;;;;;;2.10;1.90;;;24.80;99.90;;;;;;5091768;28;20478;-51
2021/08/09 11:20:33;;;;;;;3.93;1.70;;;25.40;99.90;;;;;;5089348;28;20530;-51
2021/08/09 11:23:10;;;;;;;1.20;1.10;;;25.50;99.90;;;;;;5088990;28;20465;-51
2021/08/09 11:25:40;;;;;;;2.17;1.80;;;25.90;99.90;;;;;;5086724;28;21072;-51
2021/08/09 11:28:10;;;;;;;2.10;1.30;;;26.10;99.90;;;;;;5089555;28;20509;-52
2021/08/09 11:30:43;;;;;;;1.50;1.40;;;25.90;99.90;;;;;;5088806;28;20523;-52
2021/08/09 11:33:24;;;;;;;1.60;1.50;;;25.60;99.90;;;;;;5071146;28;20446;-52
2021/08/09 11:35:54;;;;;;;1.73;1.57;;;24.30;99.90;;;;;;5089605;28;20952;-52
2021/08/09 11:38:21;;;;;;;1.60;1.50;;;23.80;99.90;;;;;;5086142;28;20471;-52
2021/08/09 11:40:50;;;;;;;2.13;1.87;;;23.80;99.90;;;;;;5076611;28;20446;-51
2021/08/09 11:43:22;;;;;;;4.87;1.60;;;24.10;99.90;;;;;;5084656;28;21016;-51
2021/08/09 11:45:49;;;;;;;2.40;1.53;;;23.90;99.90;;;;;;5091951;28;20481;-52
2021/08/09 11:48:25;;;;;;;1.50;1.40;;;23.60;99.90;;;;;;5080276;28;20474;-52
2021/08/09 11:51:00;;;;;;;1.93;1.70;;;23.70;99.90;;;;;;5090739;28;20869;-52
2021/08/09 11:53:28;;;;;;;2.40;1.60;;;23.50;99.90;;;;;;5077230;28;20471;-52
2021/08/09 11:56:20;;;;;;;1.87;1.77;;;23.40;99.90;;;;;;5091693;28;20506;-51
2021/08/09 11:58:47;;;;;;;5.93;2.63;;;23.50;99.90;;;;;;5076343;28;20519;-51
2021/08/09 12:01:21;;;;;;;1.80;1.70;;;23.50;99.90;;;;;;5090967;28;20446;-51
2021/08/09 12:04:06;;;;;;;1.70;1.60;;;23.80;99.90;;;;;;5091095;28;20525;-51
2021/08/09 12:06:46;;;;;;;2.30;1.43;;;24.00;99.90;;;;;;5091701;28;20864;-51
2021/08/09 12:09:14;;;;;;;2.40;1.67;;;24.40;99.90;;;;;;5091366;28;20500;-51
2021/08/09 12:11:41;;;;;;;4.20;1.40;;;24.10;99.90;;;;;;5094001;28;20449;-52
2021/08/09 12:14:10;;;;;;;2.13;1.60;;;24.10;99.90;;;;;;5095176;28;20446;-51
2021/08/09 12:16:59;;;;;;;3.20;1.73;;;24.20;99.90;;;;;;5094832;28;20442;-51
2021/08/09 12:19:44;;;;;;;3.23;2.40;;;24.20;99.90;;;;;;5090861;28;20482;-51
2021/08/09 12:22:16;;;;;;;2.40;1.50;;;24.60;99.90;;;;;;5083833;28;20450;-52
2021/08/09 12:24:44;;;;;;;1.80;1.50;;;24.80;99.90;;;;;;5094384;28;20453;-52
2021/08/09 12:27:19;;;;;;;2.03;1.47;;;24.40;99.90;;;;;;5094806;28;20504;-51
2021/08/09 12:30:07;;;;;;;3.10;1.50;;;24.30;99.90;;;;;;5088593;28;20457;-52
2021/08/09 12:32:35;;;;;;;2.07;1.60;;;24.40;99.90;;;;;;5083644;28;20467;-51
2021/08/09 12:35:03;;;;;;;2.90;1.70;;;24.60;99.90;;;;;;5094904;28;20456;-51
2021/08/09 12:37:34;;;;;;;2.40;1.80;;;24.30;99.90;;;;;;5094963;28;20991;-52
2021/08/09 12:40:12;;;;;;;1.60;1.50;;;24.30;99.90;;;;;;5093894;28;20976;-52
2021/08/09 12:42:40;;;;;;;2.13;1.70;;;24.40;99.90;;;;;;5089341;28;20840;-51
2021/08/09 12:45:09;;;;;;;4.43;1.70;;;24.00;99.90;;;;;;5080502;28;20825;-52
2021/08/09 12:47:36;;;;;;;3.60;1.70;;;23.90;99.90;;;;;;5094478;28;20485;-53
2021/08/09 12:50:03;;;;;;;2.33;1.73;;;23.80;99.90;;;;;;5095003;28;20452;-52
2021/08/09 12:52:32;;;;;;;3.33;1.80;;;23.50;99.90;;;;;;5094507;28;20454;-52
2021/08/09 12:54:59;;;;;;;2.87;1.80;;;23.40;99.90;;;;;;5084291;28;20458;-52
2021/08/09 12:57:26;;;;;;;2.13;1.90;;;22.90;99.90;;;;;;5090719;28;20523;-52
2021/08/09 12:59:54;;;;;;;2.70;1.70;;;22.90;99.90;;;;;;5106071;28;20454;-52